sensor_id;sensor_type;location;lat;lon;timestamp;temperature;humidity
49132;DHT22;35149;51.196;6.204;2023-06-14T00:00:45;20.50;46.30
49132;DHT22;35149;51.196;6.204;2023-06-14T00:03:14;20.50;46.30
49132;DHT22;35149;51.196;6.204;2023-06-14T00:05:44;20.40;46.20
49132;DHT22;35149;51.196;6.204;2023-06-14T00:08:13;20.40;46.40
49132;DHT22;35149;51.196;6.204;2023-06-14T00:10:41;20.30;46.40
49132;DHT22;35149;51.196;6.204;2023-06-14T00:13:11;20.30;46.50
49132;DHT22;35149;51.196;6.204;2023-06-14T00:15:40;20.30;46.80
49132;DHT22;35149;51.196;6.204;2023-06-14T00:18:10;20.20;46.70
49132;DHT22;35149;51.196;6.204;2023-06-14T00:20:41;20.20;46.90
49132;DHT22;35149;51.196;6.204;2023-06-14T00:23:13;20.10;46.80
49132;DHT22;35149;51.196;6.204;2023-06-14T00:25:39;20.10;46.70
49132;DHT22;35149;51.196;6.204;2023-06-14T00:28:07;20.00;46.80
49132;DHT22;35149;51.196;6.204;2023-06-14T00:30:37;20.00;46.90
49132;DHT22;35149;51.196;6.204;2023-06-14T00:33:05;20.00;47.20
49132;DHT22;35149;51.196;6.204;2023-06-14T00:35:32;19.90;46.90
49132;DHT22;35149;51.196;6.204;2023-06-14T00:38:03;19.90;47.10
49132;DHT22;35149;51.196;6.204;2023-06-14T00:40:29;19.80;47.20
49132;DHT22;35149;51.196;6.204;2023-06-14T00:42:57;19.80;47.40
49132;DHT22;35149;51.196;6.204;2023-06-14T00:45:28;19.70;47.50
49132;DHT22;35149;51.196;6.204;2023-06-14T00:47:55;19.70;47.50
49132;DHT22;35149;51.196;6.204;2023-06-14T00:50:22;19.70;47.50
49132;DHT22;35149;51.196;6.204;2023-06-14T00:52:52;19.60;47.50
49132;DHT22;35149;51.196;6.204;2023-06-14T00:55:21;19.60;47.40
49132;DHT22;35149;51.196;6.204;2023-06-14T00:57:48;19.50;47.50
49132;DHT22;35149;51.196;6.204;2023-06-14T01:00:18;19.50;47.70
49132;DHT22;35149;51.196;6.204;2023-06-14T01:02:47;19.40;47.70
49132;DHT22;35149;51.196;6.204;2023-06-14T01:05:14;19.40;47.60
49132;DHT22;35149;51.196;6.204;2023-06-14T01:08:03;19.30;47.80
49132;DHT22;35149;51.196;6.204;2023-06-14T01:13:12;19.30;47.90
49132;DHT22;35149;51.196;6.204;2023-06-14T01:15:44;19.20;48.20
49132;DHT22;35149;51.196;6.204;2023-06-14T01:18:13;19.10;47.80
49132;DHT22;35149;51.196;6.204;2023-06-14T01:20:47;19.10;47.90
49132;DHT22;35149;51.196;6.204;2023-06-14T01:23:20;19.10;48.00
49132;DHT22;35149;51.196;6.204;2023-06-14T01:25:50;19.00;48.00
49132;DHT22;35149;51.196;6.204;2023-06-14T01:28:22;18.90;48.10
49132;DHT22;35149;51.196;6.204;2023-06-14T01:30:54;18.90;48.10
49132;DHT22;35149;51.196;6.204;2023-06-14T01:33:26;18.90;48.40
49132;DHT22;35149;51.196;6.204;2023-06-14T01:35:59;18.90;48.90
49132;DHT22;35149;51.196;6.204;2023-06-14T01:38:34;18.80;48.70
49132;DHT22;35149;51.196;6.204;2023-06-14T01:41:03;18.80;48.70
49132;DHT22;35149;51.196;6.204;2023-06-14T01:43:39;18.70;48.50
49132;DHT22;35149;51.196;6.204;2023-06-14T01:46:09;18.70;48.60
49132;DHT22;35149;51.196;6.204;2023-06-14T01:48:39;18.60;48.60
49132;DHT22;35149;51.196;6.204;2023-06-14T01:51:07;18.60;48.80
49132;DHT22;35149;51.196;6.204;2023-06-14T01:53:36;18.60;48.90
49132;DHT22;35149;51.196;6.204;2023-06-14T01:56:10;18.50;49.00
49132;DHT22;35149;51.196;6.204;2023-06-14T01:58:39;18.50;49.20
49132;DHT22;35149;51.196;6.204;2023-06-14T02:01:13;18.50;49.00
49132;DHT22;35149;51.196;6.204;2023-06-14T02:03:44;18.40;49.10
49132;DHT22;35149;51.196;6.204;2023-06-14T02:06:15;18.40;49.10
49132;DHT22;35149;51.196;6.204;2023-06-14T02:08:47;18.30;49.10
49132;DHT22;35149;51.196;6.204;2023-06-14T02:11:23;18.30;49.10
49132;DHT22;35149;51.196;6.204;2023-06-14T02:13:50;18.30;49.40
49132;DHT22;35149;51.196;6.204;2023-06-14T02:16:17;18.20;49.20
49132;DHT22;35149;51.196;6.204;2023-06-14T02:18:43;18.20;49.20
49132;DHT22;35149;51.196;6.204;2023-06-14T02:21:10;18.20;49.40
49132;DHT22;35149;51.196;6.204;2023-06-14T02:23:37;18.20;49.50
49132;DHT22;35149;51.196;6.204;2023-06-14T02:26:06;18.10;49.50
49132;DHT22;35149;51.196;6.204;2023-06-14T02:28:34;18.10;49.40
49132;DHT22;35149;51.196;6.204;2023-06-14T02:31:04;18.00;49.40
49132;DHT22;35149;51.196;6.204;2023-06-14T02:33:31;18.00;49.60
49132;DHT22;35149;51.196;6.204;2023-06-14T02:35:57;18.00;49.50
49132;DHT22;35149;51.196;6.204;2023-06-14T02:38:24;17.90;49.60
49132;DHT22;35149;51.196;6.204;2023-06-14T02:40:51;17.90;49.80
49132;DHT22;35149;51.196;6.204;2023-06-14T02:43:23;17.90;49.70
49132;DHT22;35149;51.196;6.204;2023-06-14T02:45:50;17.90;50.00
49132;DHT22;35149;51.196;6.204;2023-06-14T02:48:20;17.80;49.80
49132;DHT22;35149;51.196;6.204;2023-06-14T02:50:47;17.80;49.80
49132;DHT22;35149;51.196;6.204;2023-06-14T02:53:13;17.80;49.80
49132;DHT22;35149;51.196;6.204;2023-06-14T02:55:45;17.70;49.80
49132;DHT22;35149;51.196;6.204;2023-06-14T02:58:19;17.70;49.70
49132;DHT22;35149;51.196;6.204;2023-06-14T03:00:45;17.70;49.90
49132;DHT22;35149;51.196;6.204;2023-06-14T03:03:17;17.60;49.90
49132;DHT22;35149;51.196;6.204;2023-06-14T03:05:51;17.60;50.10
49132;DHT22;35149;51.196;6.204;2023-06-14T03:08:26;17.50;50.00
49132;DHT22;35149;51.196;6.204;2023-06-14T03:10:58;17.50;50.10
49132;DHT22;35149;51.196;6.204;2023-06-14T03:13:29;17.40;50.20
49132;DHT22;35149;51.196;6.204;2023-06-14T03:15:58;17.40;50.40
49132;DHT22;35149;51.196;6.204;2023-06-14T03:18:33;17.40;50.30
49132;DHT22;35149;51.196;6.204;2023-06-14T03:21:05;17.40;50.40
49132;DHT22;35149;51.196;6.204;2023-06-14T03:23:37;17.30;50.60
49132;DHT22;35149;51.196;6.204;2023-06-14T03:26:04;17.30;50.70
49132;DHT22;35149;51.196;6.204;2023-06-14T03:28:32;17.30;50.90
49132;DHT22;35149;51.196;6.204;2023-06-14T03:30:59;17.30;50.90
49132;DHT22;35149;51.196;6.204;2023-06-14T03:33:30;17.20;51.00
49132;DHT22;35149;51.196;6.204;2023-06-14T03:35:57;17.20;51.10
49132;DHT22;35149;51.196;6.204;2023-06-14T03:38:31;17.20;51.10
49132;DHT22;35149;51.196;6.204;2023-06-14T03:40:58;17.30;51.20
49132;DHT22;35149;51.196;6.204;2023-06-14T03:43:25;17.20;51.20
49132;DHT22;35149;51.196;6.204;2023-06-14T03:45:54;17.20;51.40
49132;DHT22;35149;51.196;6.204;2023-06-14T03:48:22;17.20;51.40
49132;DHT22;35149;51.196;6.204;2023-06-14T03:50:52;17.20;51.40
49132;DHT22;35149;51.196;6.204;2023-06-14T03:53:26;17.20;51.60
49132;DHT22;35149;51.196;6.204;2023-06-14T03:55:58;17.20;51.90
49132;DHT22;35149;51.196;6.204;2023-06-14T03:58:36;17.20;51.20
49132;DHT22;35149;51.196;6.204;2023-06-14T04:01:03;17.20;51.20
49132;DHT22;35149;51.196;6.204;2023-06-14T04:03:31;17.20;51.60
49132;DHT22;35149;51.196;6.204;2023-06-14T04:06:01;17.20;51.90
49132;DHT22;35149;51.196;6.204;2023-06-14T04:08:28;17.10;52.20
49132;DHT22;35149;51.196;6.204;2023-06-14T04:10:57;17.20;52.30
49132;DHT22;35149;51.196;6.204;2023-06-14T04:13:24;17.20;52.30
49132;DHT22;35149;51.196;6.204;2023-06-14T04:15:53;17.20;52.50
49132;DHT22;35149;51.196;6.204;2023-06-14T04:18:28;17.20;52.80
49132;DHT22;35149;51.196;6.204;2023-06-14T04:20:56;17.20;52.90
49132;DHT22;35149;51.196;6.204;2023-06-14T04:23:23;17.20;53.10
49132;DHT22;35149;51.196;6.204;2023-06-14T04:25:50;17.20;53.30
49132;DHT22;35149;51.196;6.204;2023-06-14T04:28:17;17.30;53.60
49132;DHT22;35149;51.196;6.204;2023-06-14T04:30:45;17.30;53.80
49132;DHT22;35149;51.196;6.204;2023-06-14T04:33:15;17.30;53.90
49132;DHT22;35149;51.196;6.204;2023-06-14T04:35:42;17.40;54.20
49132;DHT22;35149;51.196;6.204;2023-06-14T04:38:09;17.40;54.30
49132;DHT22;35149;51.196;6.204;2023-06-14T04:40:37;17.40;54.40
49132;DHT22;35149;51.196;6.204;2023-06-14T04:43:10;17.50;54.60
49132;DHT22;35149;51.196;6.204;2023-06-14T04:45:44;17.50;54.90
49132;DHT22;35149;51.196;6.204;2023-06-14T04:48:13;17.60;55.00
49132;DHT22;35149;51.196;6.204;2023-06-14T04:50:40;17.70;55.20
49132;DHT22;35149;51.196;6.204;2023-06-14T04:53:07;17.70;55.40
49132;DHT22;35149;51.196;6.204;2023-06-14T04:55:35;17.70;55.50
49132;DHT22;35149;51.196;6.204;2023-06-14T04:58:03;17.80;55.70
49132;DHT22;35149;51.196;6.204;2023-06-14T05:00:30;17.90;55.80
49132;DHT22;35149;51.196;6.204;2023-06-14T05:02:56;17.90;56.00
49132;DHT22;35149;51.196;6.204;2023-06-14T05:05:23;18.00;56.10
49132;DHT22;35149;51.196;6.204;2023-06-14T05:07:51;18.00;56.20
49132;DHT22;35149;51.196;6.204;2023-06-14T05:10:18;18.10;56.30
49132;DHT22;35149;51.196;6.204;2023-06-14T05:12:45;18.20;56.40
49132;DHT22;35149;51.196;6.204;2023-06-14T05:15:17;18.20;56.40
49132;DHT22;35149;51.196;6.204;2023-06-14T05:17:45;18.30;56.40
49132;DHT22;35149;51.196;6.204;2023-06-14T05:20:19;18.40;56.70
49132;DHT22;35149;51.196;6.204;2023-06-14T05:22:46;18.50;56.20
49132;DHT22;35149;51.196;6.204;2023-06-14T05:25:12;18.50;55.80
49132;DHT22;35149;51.196;6.204;2023-06-14T05:27:40;18.60;55.60
49132;DHT22;35149;51.196;6.204;2023-06-14T05:30:08;18.70;55.10
49132;DHT22;35149;51.196;6.204;2023-06-14T05:32:35;18.80;54.50
49132;DHT22;35149;51.196;6.204;2023-06-14T05:35:02;18.90;53.80
49132;DHT22;35149;51.196;6.204;2023-06-14T05:37:32;19.00;53.60
49132;DHT22;35149;51.196;6.204;2023-06-14T05:39:58;19.10;53.00
49132;DHT22;35149;51.196;6.204;2023-06-14T05:42:25;19.20;52.50
49132;DHT22;35149;51.196;6.204;2023-06-14T05:44:52;19.30;52.20
49132;DHT22;35149;51.196;6.204;2023-06-14T05:47:18;19.40;51.90
49132;DHT22;35149;51.196;6.204;2023-06-14T05:49:45;19.50;51.80
49132;DHT22;35149;51.196;6.204;2023-06-14T05:52:12;19.60;51.40
49132;DHT22;35149;51.196;6.204;2023-06-14T05:54:39;19.70;51.70
49132;DHT22;35149;51.196;6.204;2023-06-14T05:57:06;19.80;50.50
49132;DHT22;35149;51.196;6.204;2023-06-14T05:59:33;19.90;50.60
49132;DHT22;35149;51.196;6.204;2023-06-14T06:02:00;20.00;50.50
49132;DHT22;35149;51.196;6.204;2023-06-14T06:04:27;20.10;49.90
49132;DHT22;35149;51.196;6.204;2023-06-14T06:06:54;20.20;49.20
49132;DHT22;35149;51.196;6.204;2023-06-14T06:09:21;20.30;48.80
49132;DHT22;35149;51.196;6.204;2023-06-14T06:11:47;20.40;48.80
49132;DHT22;35149;51.196;6.204;2023-06-14T06:14:18;20.40;48.30
49132;DHT22;35149;51.196;6.204;2023-06-14T06:16:45;20.50;48.00
49132;DHT22;35149;51.196;6.204;2023-06-14T06:19:12;20.60;47.60
49132;DHT22;35149;51.196;6.204;2023-06-14T06:21:41;20.70;47.20
49132;DHT22;35149;51.196;6.204;2023-06-14T06:24:08;20.70;46.50
49132;DHT22;35149;51.196;6.204;2023-06-14T06:26:35;20.80;46.90
49132;DHT22;35149;51.196;6.204;2023-06-14T06:29:01;20.90;46.60
49132;DHT22;35149;51.196;6.204;2023-06-14T06:31:28;21.00;46.20
49132;DHT22;35149;51.196;6.204;2023-06-14T06:33:55;21.00;46.00
49132;DHT22;35149;51.196;6.204;2023-06-14T06:36:22;21.10;46.10
49132;DHT22;35149;51.196;6.204;2023-06-14T06:38:49;21.20;45.90
49132;DHT22;35149;51.196;6.204;2023-06-14T06:41:15;21.20;45.70
49132;DHT22;35149;51.196;6.204;2023-06-14T06:43:42;21.30;45.50
49132;DHT22;35149;51.196;6.204;2023-06-14T06:46:09;21.30;45.30
49132;DHT22;35149;51.196;6.204;2023-06-14T06:48:36;21.40;45.20
49132;DHT22;35149;51.196;6.204;2023-06-14T06:51:02;21.40;44.90
49132;DHT22;35149;51.196;6.204;2023-06-14T06:53:29;21.50;45.00
49132;DHT22;35149;51.196;6.204;2023-06-14T06:56:07;21.50;44.70
49132;DHT22;35149;51.196;6.204;2023-06-14T06:58:33;21.60;44.70
49132;DHT22;35149;51.196;6.204;2023-06-14T07:01:00;21.70;44.40
49132;DHT22;35149;51.196;6.204;2023-06-14T07:03:27;21.70;44.60
49132;DHT22;35149;51.196;6.204;2023-06-14T07:05:54;21.80;44.50
49132;DHT22;35149;51.196;6.204;2023-06-14T07:08:20;21.80;44.60
49132;DHT22;35149;51.196;6.204;2023-06-14T07:10:47;21.90;44.30
49132;DHT22;35149;51.196;6.204;2023-06-14T07:13:14;22.00;44.10
49132;DHT22;35149;51.196;6.204;2023-06-14T07:15:41;22.00;43.40
49132;DHT22;35149;51.196;6.204;2023-06-14T07:18:08;22.10;43.50
49132;DHT22;35149;51.196;6.204;2023-06-14T07:20:35;22.10;43.00
49132;DHT22;35149;51.196;6.204;2023-06-14T07:23:04;22.20;42.80
49132;DHT22;35149;51.196;6.204;2023-06-14T07:25:32;22.20;42.90
49132;DHT22;35149;51.196;6.204;2023-06-14T07:27:58;22.30;42.70
49132;DHT22;35149;51.196;6.204;2023-06-14T07:30:25;22.30;42.80
49132;DHT22;35149;51.196;6.204;2023-06-14T07:32:53;22.40;42.70
49132;DHT22;35149;51.196;6.204;2023-06-14T07:35:21;22.50;42.70
49132;DHT22;35149;51.196;6.204;2023-06-14T07:37:47;22.50;42.30
49132;DHT22;35149;51.196;6.204;2023-06-14T07:40:14;22.60;42.50
49132;DHT22;35149;51.196;6.204;2023-06-14T07:42:41;22.60;42.10
49132;DHT22;35149;51.196;6.204;2023-06-14T07:45:08;22.60;42.10
49132;DHT22;35149;51.196;6.204;2023-06-14T07:47:36;22.70;42.00
49132;DHT22;35149;51.196;6.204;2023-06-14T07:50:03;22.70;41.80
49132;DHT22;35149;51.196;6.204;2023-06-14T07:52:31;22.80;42.10
49132;DHT22;35149;51.196;6.204;2023-06-14T07:55:00;22.80;42.30
49132;DHT22;35149;51.196;6.204;2023-06-14T07:57:26;22.90;41.70
49132;DHT22;35149;51.196;6.204;2023-06-14T07:59:53;22.90;41.50
49132;DHT22;35149;51.196;6.204;2023-06-14T08:02:22;23.00;41.50
49132;DHT22;35149;51.196;6.204;2023-06-14T08:04:49;23.10;41.30
49132;DHT22;35149;51.196;6.204;2023-06-14T08:07:16;23.10;41.10
49132;DHT22;35149;51.196;6.204;2023-06-14T08:09:43;23.20;41.10
49132;DHT22;35149;51.196;6.204;2023-06-14T08:12:09;23.20;40.90
49132;DHT22;35149;51.196;6.204;2023-06-14T08:14:37;23.30;40.80
49132;DHT22;35149;51.196;6.204;2023-06-14T08:17:04;23.30;40.50
49132;DHT22;35149;51.196;6.204;2023-06-14T08:19:30;23.40;40.40
49132;DHT22;35149;51.196;6.204;2023-06-14T08:21:57;23.40;40.00
49132;DHT22;35149;51.196;6.204;2023-06-14T08:24:24;23.50;39.80
49132;DHT22;35149;51.196;6.204;2023-06-14T08:26:51;23.50;40.00
49132;DHT22;35149;51.196;6.204;2023-06-14T08:29:18;23.50;39.50
49132;DHT22;35149;51.196;6.204;2023-06-14T08:31:45;23.60;39.70
49132;DHT22;35149;51.196;6.204;2023-06-14T08:34:12;23.60;39.40
49132;DHT22;35149;51.196;6.204;2023-06-14T08:36:40;23.70;39.10
49132;DHT22;35149;51.196;6.204;2023-06-14T08:39:07;23.70;38.80
49132;DHT22;35149;51.196;6.204;2023-06-14T08:41:35;23.80;37.70
49132;DHT22;35149;51.196;6.204;2023-06-14T08:44:04;23.80;37.50
49132;DHT22;35149;51.196;6.204;2023-06-14T08:46:33;23.90;37.10
49132;DHT22;35149;51.196;6.204;2023-06-14T08:49:01;24.00;37.40
49132;DHT22;35149;51.196;6.204;2023-06-14T08:51:32;24.00;36.40
49132;DHT22;35149;51.196;6.204;2023-06-14T08:54:00;24.10;35.50
49132;DHT22;35149;51.196;6.204;2023-06-14T08:56:28;24.10;35.00
49132;DHT22;35149;51.196;6.204;2023-06-14T08:58:59;24.20;35.00
49132;DHT22;35149;51.196;6.204;2023-06-14T09:01:34;24.20;34.60
49132;DHT22;35149;51.196;6.204;2023-06-14T09:04:01;24.20;34.10
49132;DHT22;35149;51.196;6.204;2023-06-14T09:06:28;24.30;34.30
49132;DHT22;35149;51.196;6.204;2023-06-14T09:08:56;24.30;34.80
49132;DHT22;35149;51.196;6.204;2023-06-14T09:11:25;24.40;34.10
49132;DHT22;35149;51.196;6.204;2023-06-14T09:13:53;24.40;34.10
49132;DHT22;35149;51.196;6.204;2023-06-14T09:16:19;24.40;34.10
49132;DHT22;35149;51.196;6.204;2023-06-14T09:18:49;24.50;34.10
49132;DHT22;35149;51.196;6.204;2023-06-14T09:21:17;24.50;33.50
49132;DHT22;35149;51.196;6.204;2023-06-14T09:23:45;24.50;33.20
49132;DHT22;35149;51.196;6.204;2023-06-14T09:26:17;24.60;33.50
49132;DHT22;35149;51.196;6.204;2023-06-14T09:28:45;24.60;33.40
49132;DHT22;35149;51.196;6.204;2023-06-14T09:31:17;24.70;33.60
49132;DHT22;35149;51.196;6.204;2023-06-14T09:33:45;24.70;33.30
49132;DHT22;35149;51.196;6.204;2023-06-14T09:36:16;24.70;32.90
49132;DHT22;35149;51.196;6.204;2023-06-14T09:39:03;24.80;33.00
49132;DHT22;35149;51.196;6.204;2023-06-14T09:41:40;24.90;32.80
49132;DHT22;35149;51.196;6.204;2023-06-14T09:44:08;24.90;33.30
49132;DHT22;35149;51.196;6.204;2023-06-14T09:46:41;24.90;33.20
49132;DHT22;35149;51.196;6.204;2023-06-14T09:49:08;24.90;33.30
49132;DHT22;35149;51.196;6.204;2023-06-14T09:51:42;25.00;33.10
49132;DHT22;35149;51.196;6.204;2023-06-14T09:54:15;25.00;33.50
49132;DHT22;35149;51.196;6.204;2023-06-14T09:56:45;25.10;33.70
49132;DHT22;35149;51.196;6.204;2023-06-14T09:59:12;25.10;32.90
49132;DHT22;35149;51.196;6.204;2023-06-14T10:01:42;25.10;33.10
49132;DHT22;35149;51.196;6.204;2023-06-14T10:04:10;25.20;32.90
49132;DHT22;35149;51.196;6.204;2023-06-14T10:06:40;25.20;33.60
49132;DHT22;35149;51.196;6.204;2023-06-14T10:09:09;25.30;33.10
49132;DHT22;35149;51.196;6.204;2023-06-14T10:11:37;25.30;33.00
49132;DHT22;35149;51.196;6.204;2023-06-14T10:14:10;25.30;33.00
49132;DHT22;35149;51.196;6.204;2023-06-14T10:17:03;25.30;33.20
49132;DHT22;35149;51.196;6.204;2023-06-14T10:19:40;25.40;33.00
49132;DHT22;35149;51.196;6.204;2023-06-14T10:22:24;25.40;33.00
49132;DHT22;35149;51.196;6.204;2023-06-14T10:24:52;25.40;33.00
49132;DHT22;35149;51.196;6.204;2023-06-14T10:27:19;25.50;33.40
49132;DHT22;35149;51.196;6.204;2023-06-14T10:32:23;25.60;33.30
49132;DHT22;35149;51.196;6.204;2023-06-14T10:35:04;25.60;33.50
49132;DHT22;35149;51.196;6.204;2023-06-14T10:37:32;25.60;33.90
49132;DHT22;35149;51.196;6.204;2023-06-14T10:39:59;25.60;33.60
49132;DHT22;35149;51.196;6.204;2023-06-14T10:42:32;25.60;33.20
49132;DHT22;35149;51.196;6.204;2023-06-14T10:45:00;25.70;33.60
49132;DHT22;35149;51.196;6.204;2023-06-14T10:47:35;25.70;33.30
49132;DHT22;35149;51.196;6.204;2023-06-14T10:50:08;25.70;33.50
49132;DHT22;35149;51.196;6.204;2023-06-14T10:52:38;25.80;34.20
49132;DHT22;35149;51.196;6.204;2023-06-14T10:57:44;25.80;34.00
49132;DHT22;35149;51.196;6.204;2023-06-14T11:00:23;25.80;34.40
49132;DHT22;35149;51.196;6.204;2023-06-14T11:08:27;26.00;34.20
49132;DHT22;35149;51.196;6.204;2023-06-14T11:11:05;26.00;33.80
49132;DHT22;35149;51.196;6.204;2023-06-14T11:13:32;26.10;33.80
49132;DHT22;35149;51.196;6.204;2023-06-14T11:15:59;26.10;33.40
49132;DHT22;35149;51.196;6.204;2023-06-14T11:18:28;26.10;33.20
49132;DHT22;35149;51.196;6.204;2023-06-14T11:20:55;26.20;33.00
49132;DHT22;35149;51.196;6.204;2023-06-14T11:23:22;26.20;32.90
49132;DHT22;35149;51.196;6.204;2023-06-14T11:25:50;26.20;33.80
49132;DHT22;35149;51.196;6.204;2023-06-14T11:28:17;26.20;32.70
49132;DHT22;35149;51.196;6.204;2023-06-14T11:30:46;26.30;32.70
49132;DHT22;35149;51.196;6.204;2023-06-14T11:33:17;26.30;32.60
49132;DHT22;35149;51.196;6.204;2023-06-14T11:35:45;26.30;32.60
49132;DHT22;35149;51.196;6.204;2023-06-14T11:38:12;26.30;32.60
49132;DHT22;35149;51.196;6.204;2023-06-14T11:40:39;26.30;32.40
49132;DHT22;35149;51.196;6.204;2023-06-14T11:43:06;26.40;32.40
49132;DHT22;35149;51.196;6.204;2023-06-14T11:45:32;26.40;32.20
49132;DHT22;35149;51.196;6.204;2023-06-14T11:47:59;26.50;31.90
49132;DHT22;35149;51.196;6.204;2023-06-14T11:50:28;26.50;31.80
49132;DHT22;35149;51.196;6.204;2023-06-14T11:52:55;26.50;32.10
49132;DHT22;35149;51.196;6.204;2023-06-14T11:55:23;26.50;32.30
49132;DHT22;35149;51.196;6.204;2023-06-14T11:57:50;26.60;32.20
49132;DHT22;35149;51.196;6.204;2023-06-14T12:00:17;26.60;32.20
49132;DHT22;35149;51.196;6.204;2023-06-14T12:02:52;26.70;32.10
49132;DHT22;35149;51.196;6.204;2023-06-14T12:05:22;26.70;32.10
49132;DHT22;35149;51.196;6.204;2023-06-14T12:07:50;26.80;32.20
49132;DHT22;35149;51.196;6.204;2023-06-14T12:10:17;26.80;32.10
49132;DHT22;35149;51.196;6.204;2023-06-14T12:12:44;26.90;32.10
49132;DHT22;35149;51.196;6.204;2023-06-14T12:15:11;27.00;31.70
49132;DHT22;35149;51.196;6.204;2023-06-14T12:17:39;27.00;32.10
49132;DHT22;35149;51.196;6.204;2023-06-14T12:20:11;27.10;31.90
49132;DHT22;35149;51.196;6.204;2023-06-14T12:25:25;27.20;31.50
49132;DHT22;35149;51.196;6.204;2023-06-14T12:27:54;27.30;31.50
49132;DHT22;35149;51.196;6.204;2023-06-14T12:30:21;27.40;31.50
49132;DHT22;35149;51.196;6.204;2023-06-14T12:32:48;27.50;31.50
49132;DHT22;35149;51.196;6.204;2023-06-14T12:35:15;27.50;31.30
49132;DHT22;35149;51.196;6.204;2023-06-14T12:37:42;27.60;31.00
49132;DHT22;35149;51.196;6.204;2023-06-14T12:40:09;27.70;30.70
49132;DHT22;35149;51.196;6.204;2023-06-14T12:42:38;27.70;30.20
49132;DHT22;35149;51.196;6.204;2023-06-14T12:45:05;27.80;30.10
49132;DHT22;35149;51.196;6.204;2023-06-14T12:47:32;27.90;30.00
49132;DHT22;35149;51.196;6.204;2023-06-14T12:49:59;27.90;30.00
49132;DHT22;35149;51.196;6.204;2023-06-14T12:52:26;28.00;30.40
49132;DHT22;35149;51.196;6.204;2023-06-14T12:54:53;28.10;30.10
49132;DHT22;35149;51.196;6.204;2023-06-14T12:57:23;28.10;30.10
49132;DHT22;35149;51.196;6.204;2023-06-14T12:59:50;28.20;30.40
49132;DHT22;35149;51.196;6.204;2023-06-14T13:02:17;28.30;30.20
49132;DHT22;35149;51.196;6.204;2023-06-14T13:04:45;28.40;30.10
49132;DHT22;35149;51.196;6.204;2023-06-14T13:07:12;28.50;30.20
49132;DHT22;35149;51.196;6.204;2023-06-14T13:09:39;28.50;30.00
49132;DHT22;35149;51.196;6.204;2023-06-14T13:12:06;28.70;30.00
49132;DHT22;35149;51.196;6.204;2023-06-14T13:14:33;28.80;30.30
49132;DHT22;35149;51.196;6.204;2023-06-14T13:16:59;28.90;30.30
49132;DHT22;35149;51.196;6.204;2023-06-14T13:19:26;29.10;29.90
49132;DHT22;35149;51.196;6.204;2023-06-14T13:21:53;29.30;30.00
49132;DHT22;35149;51.196;6.204;2023-06-14T13:24:20;29.40;30.70
49132;DHT22;35149;51.196;6.204;2023-06-14T13:26:46;29.60;30.30
49132;DHT22;35149;51.196;6.204;2023-06-14T13:29:13;29.80;29.80
49132;DHT22;35149;51.196;6.204;2023-06-14T13:31:40;30.20;29.90
49132;DHT22;35149;51.196;6.204;2023-06-14T13:34:09;30.70;30.10
49132;DHT22;35149;51.196;6.204;2023-06-14T13:36:36;31.50;29.90
49132;DHT22;35149;51.196;6.204;2023-06-14T13:39:02;32.50;29.80
49132;DHT22;35149;51.196;6.204;2023-06-14T13:41:29;33.50;29.90
49132;DHT22;35149;51.196;6.204;2023-06-14T13:43:58;34.70;29.30
49132;DHT22;35149;51.196;6.204;2023-06-14T13:46:25;35.90;28.60
49132;DHT22;35149;51.196;6.204;2023-06-14T13:48:52;37.20;27.90
49132;DHT22;35149;51.196;6.204;2023-06-14T13:51:19;38.40;27.30
49132;DHT22;35149;51.196;6.204;2023-06-14T13:53:48;39.50;26.50
49132;DHT22;35149;51.196;6.204;2023-06-14T13:56:15;40.60;25.80
49132;DHT22;35149;51.196;6.204;2023-06-14T13:58:42;41.60;25.20
49132;DHT22;35149;51.196;6.204;2023-06-14T14:01:09;42.60;24.80
49132;DHT22;35149;51.196;6.204;2023-06-14T14:03:36;43.50;24.20
49132;DHT22;35149;51.196;6.204;2023-06-14T14:06:04;44.40;23.70
49132;DHT22;35149;51.196;6.204;2023-06-14T14:08:30;45.20;23.00
49132;DHT22;35149;51.196;6.204;2023-06-14T14:10:57;45.80;22.70
49132;DHT22;35149;51.196;6.204;2023-06-14T14:13:24;46.40;22.40
49132;DHT22;35149;51.196;6.204;2023-06-14T14:15:51;47.00;22.30
49132;DHT22;35149;51.196;6.204;2023-06-14T14:18:19;47.40;21.80
49132;DHT22;35149;51.196;6.204;2023-06-14T14:20:48;47.80;21.40
49132;DHT22;35149;51.196;6.204;2023-06-14T14:23:16;48.10;21.20
49132;DHT22;35149;51.196;6.204;2023-06-14T14:25:45;48.50;21.00
49132;DHT22;35149;51.196;6.204;2023-06-14T14:28:16;48.80;20.80
49132;DHT22;35149;51.196;6.204;2023-06-14T14:30:46;49.20;21.20
49132;DHT22;35149;51.196;6.204;2023-06-14T14:33:16;49.40;20.60
49132;DHT22;35149;51.196;6.204;2023-06-14T14:35:44;49.70;20.50
49132;DHT22;35149;51.196;6.204;2023-06-14T14:38:14;50.00;20.50
49132;DHT22;35149;51.196;6.204;2023-06-14T14:40:44;50.10;22.00
49132;DHT22;35149;51.196;6.204;2023-06-14T14:43:13;50.40;20.60
49132;DHT22;35149;51.196;6.204;2023-06-14T14:45:45;50.60;20.30
49132;DHT22;35149;51.196;6.204;2023-06-14T14:48:15;50.90;20.00
49132;DHT22;35149;51.196;6.204;2023-06-14T14:50:43;51.10;19.90
49132;DHT22;35149;51.196;6.204;2023-06-14T14:53:13;51.20;19.80
49132;DHT22;35149;51.196;6.204;2023-06-14T14:55:45;51.40;19.80
49132;DHT22;35149;51.196;6.204;2023-06-14T14:58:14;51.50;19.70
49132;DHT22;35149;51.196;6.204;2023-06-14T15:00:47;51.80;19.80
49132;DHT22;35149;51.196;6.204;2023-06-14T15:03:18;52.00;19.60
49132;DHT22;35149;51.196;6.204;2023-06-14T15:05:45;52.10;19.50
49132;DHT22;35149;51.196;6.204;2023-06-14T15:08:16;52.20;19.40
49132;DHT22;35149;51.196;6.204;2023-06-14T15:10:45;52.30;19.40
49132;DHT22;35149;51.196;6.204;2023-06-14T15:13:15;52.30;19.50
49132;DHT22;35149;51.196;6.204;2023-06-14T15:15:41;52.40;19.40
49132;DHT22;35149;51.196;6.204;2023-06-14T15:18:08;52.50;19.20
49132;DHT22;35149;51.196;6.204;2023-06-14T15:20:38;52.50;19.00
49132;DHT22;35149;51.196;6.204;2023-06-14T15:23:05;52.60;19.10
49132;DHT22;35149;51.196;6.204;2023-06-14T15:25:33;52.70;19.30
49132;DHT22;35149;51.196;6.204;2023-06-14T15:28:00;52.70;19.10
49132;DHT22;35149;51.196;6.204;2023-06-14T15:30:32;52.80;19.10
49132;DHT22;35149;51.196;6.204;2023-06-14T15:33:04;52.80;19.20
49132;DHT22;35149;51.196;6.204;2023-06-14T15:35:42;52.80;19.00
49132;DHT22;35149;51.196;6.204;2023-06-14T15:38:09;52.80;19.00
49132;DHT22;35149;51.196;6.204;2023-06-14T15:40:36;52.90;19.00
49132;DHT22;35149;51.196;6.204;2023-06-14T15:43:02;53.00;19.10
49132;DHT22;35149;51.196;6.204;2023-06-14T15:45:30;53.20;19.40
49132;DHT22;35149;51.196;6.204;2023-06-14T15:47:57;53.00;18.60
49132;DHT22;35149;51.196;6.204;2023-06-14T15:50:24;52.90;18.70
49132;DHT22;35149;51.196;6.204;2023-06-14T15:52:51;52.80;18.70
49132;DHT22;35149;51.196;6.204;2023-06-14T15:55:18;52.60;18.80